sensor_id;sensor_type;location;lat;lon;timestamp;temperature;humidity
51613;DHT22;37694;51.748;14.326;2022-12-05T00:01:58;22.60;47.00
51613;DHT22;37694;51.748;14.326;2022-12-05T00:04:24;22.60;47.00
51613;DHT22;37694;51.748;14.326;2022-12-05T00:06:49;22.50;46.80
51613;DHT22;37694;51.748;14.326;2022-12-05T00:09:15;22.50;47.60
51613;DHT22;37694;51.748;14.326;2022-12-05T00:11:42;22.50;46.70
51613;DHT22;37694;51.748;14.326;2022-12-05T00:14:09;22.50;46.70
51613;DHT22;37694;51.748;14.326;2022-12-05T00:16:37;22.50;46.60
51613;DHT22;37694;51.748;14.326;2022-12-05T00:19:05;22.50;46.60
51613;DHT22;37694;51.748;14.326;2022-12-05T00:21:32;22.50;46.60
51613;DHT22;37694;51.748;14.326;2022-12-05T00:23:59;22.50;46.60
51613;DHT22;37694;51.748;14.326;2022-12-05T00:26:26;22.50;46.70
51613;DHT22;37694;51.748;14.326;2022-12-05T00:28:52;22.40;46.60
51613;DHT22;37694;51.748;14.326;2022-12-05T00:31:20;22.50;46.60
51613;DHT22;37694;51.748;14.326;2022-12-05T00:33:46;22.40;46.60
51613;DHT22;37694;51.748;14.326;2022-12-05T00:36:15;22.40;46.70
51613;DHT22;37694;51.748;14.326;2022-12-05T00:38:41;22.40;46.60
51613;DHT22;37694;51.748;14.326;2022-12-05T00:41:09;22.40;46.70
51613;DHT22;37694;51.748;14.326;2022-12-05T00:43:36;22.40;46.70
51613;DHT22;37694;51.748;14.326;2022-12-05T00:46:06;22.40;46.70
51613;DHT22;37694;51.748;14.326;2022-12-05T00:48:33;22.40;46.70
51613;DHT22;37694;51.748;14.326;2022-12-05T00:51:03;22.30;46.70
51613;DHT22;37694;51.748;14.326;2022-12-05T00:53:30;22.30;46.60
51613;DHT22;37694;51.748;14.326;2022-12-05T00:56:00;22.30;46.60
51613;DHT22;37694;51.748;14.326;2022-12-05T00:58:26;22.30;46.70
51613;DHT22;37694;51.748;14.326;2022-12-05T01:00:51;22.30;46.80
51613;DHT22;37694;51.748;14.326;2022-12-05T01:03:17;22.30;46.80
51613;DHT22;37694;51.748;14.326;2022-12-05T01:05:43;22.30;46.80
51613;DHT22;37694;51.748;14.326;2022-12-05T01:08:08;22.20;47.00
51613;DHT22;37694;51.748;14.326;2022-12-05T01:10:34;22.20;46.90
51613;DHT22;37694;51.748;14.326;2022-12-05T01:12:59;22.20;47.00
51613;DHT22;37694;51.748;14.326;2022-12-05T01:15:25;22.20;47.10
51613;DHT22;37694;51.748;14.326;2022-12-05T01:17:51;22.20;46.90
51613;DHT22;37694;51.748;14.326;2022-12-05T01:20:17;22.10;46.70
51613;DHT22;37694;51.748;14.326;2022-12-05T01:22:42;22.20;46.70
51613;DHT22;37694;51.748;14.326;2022-12-05T01:25:08;22.20;46.80
51613;DHT22;37694;51.748;14.326;2022-12-05T01:27:34;22.20;46.70
51613;DHT22;37694;51.748;14.326;2022-12-05T01:29:59;22.20;46.70
51613;DHT22;37694;51.748;14.326;2022-12-05T01:32:25;22.20;46.80
51613;DHT22;37694;51.748;14.326;2022-12-05T01:34:51;22.20;46.70
51613;DHT22;37694;51.748;14.326;2022-12-05T01:37:16;22.10;46.60
51613;DHT22;37694;51.748;14.326;2022-12-05T01:39:42;22.10;46.70
51613;DHT22;37694;51.748;14.326;2022-12-05T01:42:08;22.10;46.70
51613;DHT22;37694;51.748;14.326;2022-12-05T01:47:01;22.00;46.60
51613;DHT22;37694;51.748;14.326;2022-12-05T01:49:32;22.00;46.60
51613;DHT22;37694;51.748;14.326;2022-12-05T01:52:15;22.10;46.70
51613;DHT22;37694;51.748;14.326;2022-12-05T01:54:44;22.00;46.60
51613;DHT22;37694;51.748;14.326;2022-12-05T01:57:12;22.00;46.90
51613;DHT22;37694;51.748;14.326;2022-12-05T01:59:43;22.00;46.80
51613;DHT22;37694;51.748;14.326;2022-12-05T02:02:10;22.00;46.80
51613;DHT22;37694;51.748;14.326;2022-12-05T02:04:43;21.90;46.90
51613;DHT22;37694;51.748;14.326;2022-12-05T02:07:10;22.00;46.90
51613;DHT22;37694;51.748;14.326;2022-12-05T02:09:36;21.90;46.80
51613;DHT22;37694;51.748;14.326;2022-12-05T02:12:02;21.90;47.00
51613;DHT22;37694;51.748;14.326;2022-12-05T02:14:58;21.90;46.90
51613;DHT22;37694;51.748;14.326;2022-12-05T02:17:47;21.90;46.90
51613;DHT22;37694;51.748;14.326;2022-12-05T02:26:45;21.90;47.10
51613;DHT22;37694;51.748;14.326;2022-12-05T02:29:17;21.90;47.00
51613;DHT22;37694;51.748;14.326;2022-12-05T02:32:44;21.80;46.80
51613;DHT22;37694;51.748;14.326;2022-12-05T02:34:59;21.80;46.80
51613;DHT22;37694;51.748;14.326;2022-12-05T02:37:34;21.80;47.60
51613;DHT22;37694;51.748;14.326;2022-12-05T02:40:31;21.80;46.70
51613;DHT22;37694;51.748;14.326;2022-12-05T02:43:10;21.80;46.60
51613;DHT22;37694;51.748;14.326;2022-12-05T02:45:39;21.80;46.60
51613;DHT22;37694;51.748;14.326;2022-12-05T02:48:06;21.80;47.50
51613;DHT22;37694;51.748;14.326;2022-12-05T02:50:35;21.80;46.70
51613;DHT22;37694;51.748;14.326;2022-12-05T02:53:13;21.80;46.70
51613;DHT22;37694;51.748;14.326;2022-12-05T02:55:41;21.70;46.60
51613;DHT22;37694;51.748;14.326;2022-12-05T02:58:12;21.70;46.60
51613;DHT22;37694;51.748;14.326;2022-12-05T03:00:43;21.70;46.60
51613;DHT22;37694;51.748;14.326;2022-12-05T03:03:15;21.70;46.60
51613;DHT22;37694;51.748;14.326;2022-12-05T03:06:25;21.70;46.70
51613;DHT22;37694;51.748;14.326;2022-12-05T03:08:40;21.70;46.80
51613;DHT22;37694;51.748;14.326;2022-12-05T03:11:07;21.60;46.80
51613;DHT22;37694;51.748;14.326;2022-12-05T03:13:39;21.70;46.90
51613;DHT22;37694;51.748;14.326;2022-12-05T03:16:12;21.70;46.80
51613;DHT22;37694;51.748;14.326;2022-12-05T03:18:44;21.60;46.80
51613;DHT22;37694;51.748;14.326;2022-12-05T03:21:39;21.60;46.80
51613;DHT22;37694;51.748;14.326;2022-12-05T03:24:08;21.70;46.70
51613;DHT22;37694;51.748;14.326;2022-12-05T03:26:56;21.60;46.80
51613;DHT22;37694;51.748;14.326;2022-12-05T03:37:10;21.60;46.90
51613;DHT22;37694;51.748;14.326;2022-12-05T03:39:39;21.60;47.00
51613;DHT22;37694;51.748;14.326;2022-12-05T03:42:12;21.60;47.00
51613;DHT22;37694;51.748;14.326;2022-12-05T03:44:48;21.60;47.20
51613;DHT22;37694;51.748;14.326;2022-12-05T03:49:58;21.50;46.80
51613;DHT22;37694;51.748;14.326;2022-12-05T03:52:54;21.50;46.80
51613;DHT22;37694;51.748;14.326;2022-12-05T03:55:22;21.50;46.90
51613;DHT22;37694;51.748;14.326;2022-12-05T03:58:01;21.50;46.80
51613;DHT22;37694;51.748;14.326;2022-12-05T04:00:34;21.50;47.70
51613;DHT22;37694;51.748;14.326;2022-12-05T04:06:28;21.50;46.80
51613;DHT22;37694;51.748;14.326;2022-12-05T04:09:04;21.50;47.20
51613;DHT22;37694;51.748;14.326;2022-12-05T04:11:33;21.50;47.40
51613;DHT22;37694;51.748;14.326;2022-12-05T04:14:09;21.50;47.10
51613;DHT22;37694;51.748;14.326;2022-12-05T04:19:40;21.70;46.80
51613;DHT22;37694;51.748;14.326;2022-12-05T04:22:27;21.70;46.80
51613;DHT22;37694;51.748;14.326;2022-12-05T04:24:55;21.80;46.80
51613;DHT22;37694;51.748;14.326;2022-12-05T04:31:21;22.00;46.80
51613;DHT22;37694;51.748;14.326;2022-12-05T04:33:56;22.00;46.80
51613;DHT22;37694;51.748;14.326;2022-12-05T04:39:11;22.20;46.80
51613;DHT22;37694;51.748;14.326;2022-12-05T04:41:52;22.20;46.70
51613;DHT22;37694;51.748;14.326;2022-12-05T04:44:22;22.30;46.80
51613;DHT22;37694;51.748;14.326;2022-12-05T04:46:51;22.30;46.70
51613;DHT22;37694;51.748;14.326;2022-12-05T04:49:21;22.40;46.80
51613;DHT22;37694;51.748;14.326;2022-12-05T04:51:51;22.50;46.70
51613;DHT22;37694;51.748;14.326;2022-12-05T04:54:26;22.50;46.60
51613;DHT22;37694;51.748;14.326;2022-12-05T04:56:55;22.60;46.60
51613;DHT22;37694;51.748;14.326;2022-12-05T04:59:24;22.60;46.50
51613;DHT22;37694;51.748;14.326;2022-12-05T05:01:54;22.70;46.60
51613;DHT22;37694;51.748;14.326;2022-12-05T05:04:28;22.70;46.40
51613;DHT22;37694;51.748;14.326;2022-12-05T05:06:56;22.70;46.40
51613;DHT22;37694;51.748;14.326;2022-12-05T05:09:22;22.80;46.50
51613;DHT22;37694;51.748;14.326;2022-12-05T05:11:48;22.90;46.40
51613;DHT22;37694;51.748;14.326;2022-12-05T05:14:13;22.90;46.20
51613;DHT22;37694;51.748;14.326;2022-12-05T05:16:40;23.00;46.10
51613;DHT22;37694;51.748;14.326;2022-12-05T05:19:07;23.00;46.00
51613;DHT22;37694;51.748;14.326;2022-12-05T05:21:38;23.10;46.00
51613;DHT22;37694;51.748;14.326;2022-12-05T05:24:05;23.20;45.80
51613;DHT22;37694;51.748;14.326;2022-12-05T05:26:33;23.30;45.80
51613;DHT22;37694;51.748;14.326;2022-12-05T05:28:59;23.30;45.70
51613;DHT22;37694;51.748;14.326;2022-12-05T05:31:26;23.40;45.60
51613;DHT22;37694;51.748;14.326;2022-12-05T05:33:53;23.40;45.50
51613;DHT22;37694;51.748;14.326;2022-12-05T05:36:21;23.50;45.40
51613;DHT22;37694;51.748;14.326;2022-12-05T05:38:49;23.50;45.40
51613;DHT22;37694;51.748;14.326;2022-12-05T05:41:20;23.50;45.30
51613;DHT22;37694;51.748;14.326;2022-12-05T05:43:47;23.50;45.30
51613;DHT22;37694;51.748;14.326;2022-12-05T05:46:17;23.50;45.40
51613;DHT22;37694;51.748;14.326;2022-12-05T05:48:43;23.50;45.30
51613;DHT22;37694;51.748;14.326;2022-12-05T05:51:11;23.50;45.30
51613;DHT22;37694;51.748;14.326;2022-12-05T05:53:36;23.40;45.30
51613;DHT22;37694;51.748;14.326;2022-12-05T05:56:04;23.40;45.50
51613;DHT22;37694;51.748;14.326;2022-12-05T05:58:30;23.40;45.50
51613;DHT22;37694;51.748;14.326;2022-12-05T06:01:23;23.40;45.80
51613;DHT22;37694;51.748;14.326;2022-12-05T06:03:48;23.40;45.60
51613;DHT22;37694;51.748;14.326;2022-12-05T06:06:15;23.30;45.70
51613;DHT22;37694;51.748;14.326;2022-12-05T06:08:42;23.40;45.70
51613;DHT22;37694;51.748;14.326;2022-12-05T06:11:14;23.30;45.70
51613;DHT22;37694;51.748;14.326;2022-12-05T06:13:40;23.30;45.70
51613;DHT22;37694;51.748;14.326;2022-12-05T06:16:07;23.30;46.10
51613;DHT22;37694;51.748;14.326;2022-12-05T06:18:33;23.30;45.90
51613;DHT22;37694;51.748;14.326;2022-12-05T06:20:59;23.30;46.10
51613;DHT22;37694;51.748;14.326;2022-12-05T06:23:25;23.20;45.90
51613;DHT22;37694;51.748;14.326;2022-12-05T06:25:53;23.20;46.40
51613;DHT22;37694;51.748;14.326;2022-12-05T06:28:20;23.20;46.20
51613;DHT22;37694;51.748;14.326;2022-12-05T06:30:46;23.20;46.60
51613;DHT22;37694;51.748;14.326;2022-12-05T06:33:13;23.10;46.60
51613;DHT22;37694;51.748;14.326;2022-12-05T06:35:39;23.20;46.90
51613;DHT22;37694;51.748;14.326;2022-12-05T06:38:06;23.10;46.80
51613;DHT22;37694;51.748;14.326;2022-12-05T06:40:32;23.10;46.90
51613;DHT22;37694;51.748;14.326;2022-12-05T06:42:58;23.10;47.10
51613;DHT22;37694;51.748;14.326;2022-12-05T06:45:24;23.10;47.10
51613;DHT22;37694;51.748;14.326;2022-12-05T06:47:50;23.10;46.60
51613;DHT22;37694;51.748;14.326;2022-12-05T06:50:16;23.00;46.90
51613;DHT22;37694;51.748;14.326;2022-12-05T06:52:42;23.00;46.80
51613;DHT22;37694;51.748;14.326;2022-12-05T06:55:08;23.00;47.10
51613;DHT22;37694;51.748;14.326;2022-12-05T06:57:34;23.00;47.10
51613;DHT22;37694;51.748;14.326;2022-12-05T07:00:00;23.10;47.00
51613;DHT22;37694;51.748;14.326;2022-12-05T07:02:48;23.20;47.00
51613;DHT22;37694;51.748;14.326;2022-12-05T07:05:14;23.20;46.90
51613;DHT22;37694;51.748;14.326;2022-12-05T07:07:40;23.30;46.80
51613;DHT22;37694;51.748;14.326;2022-12-05T07:10:06;23.30;46.70
51613;DHT22;37694;51.748;14.326;2022-12-05T07:12:32;23.30;46.60
51613;DHT22;37694;51.748;14.326;2022-12-05T07:14:58;23.40;46.60
51613;DHT22;37694;51.748;14.326;2022-12-05T07:17:24;23.40;46.50
51613;DHT22;37694;51.748;14.326;2022-12-05T07:19:51;23.40;46.50
51613;DHT22;37694;51.748;14.326;2022-12-05T07:22:18;23.40;47.30
51613;DHT22;37694;51.748;14.326;2022-12-05T07:24:44;23.40;46.50
51613;DHT22;37694;51.748;14.326;2022-12-05T07:27:10;23.40;46.50
51613;DHT22;37694;51.748;14.326;2022-12-05T07:29:36;23.40;46.40
51613;DHT22;37694;51.748;14.326;2022-12-05T07:32:02;23.40;46.30
51613;DHT22;37694;51.748;14.326;2022-12-05T07:34:28;23.40;46.50
51613;DHT22;37694;51.748;14.326;2022-12-05T07:36:54;23.40;46.40
51613;DHT22;37694;51.748;14.326;2022-12-05T07:39:19;23.40;46.60
51613;DHT22;37694;51.748;14.326;2022-12-05T07:41:45;23.40;46.40
51613;DHT22;37694;51.748;14.326;2022-12-05T07:44:11;23.30;46.30
51613;DHT22;37694;51.748;14.326;2022-12-05T07:46:38;23.30;46.40
51613;DHT22;37694;51.748;14.326;2022-12-05T07:49:04;23.30;46.40
51613;DHT22;37694;51.748;14.326;2022-12-05T07:51:30;23.30;46.10
51613;DHT22;37694;51.748;14.326;2022-12-05T07:53:58;23.30;45.90
51613;DHT22;37694;51.748;14.326;2022-12-05T07:56:24;23.20;45.80
51613;DHT22;37694;51.748;14.326;2022-12-05T07:58:50;23.20;46.10
51613;DHT22;37694;51.748;14.326;2022-12-05T08:01:19;23.20;46.10
51613;DHT22;37694;51.748;14.326;2022-12-05T08:03:47;23.20;46.20
51613;DHT22;37694;51.748;14.326;2022-12-05T08:06:15;23.20;46.30
51613;DHT22;37694;51.748;14.326;2022-12-05T08:08:41;23.10;46.20
51613;DHT22;37694;51.748;14.326;2022-12-05T08:11:12;23.10;46.30
51613;DHT22;37694;51.748;14.326;2022-12-05T08:13:39;23.00;46.10
51613;DHT22;37694;51.748;14.326;2022-12-05T08:16:08;23.00;46.10
51613;DHT22;37694;51.748;14.326;2022-12-05T08:18:36;23.00;46.20
51613;DHT22;37694;51.748;14.326;2022-12-05T08:21:13;23.00;45.90
51613;DHT22;37694;51.748;14.326;2022-12-05T08:23:40;22.90;45.90
51613;DHT22;37694;51.748;14.326;2022-12-05T08:26:14;22.90;45.90
51613;DHT22;37694;51.748;14.326;2022-12-05T08:28:41;22.90;45.80
51613;DHT22;37694;51.748;14.326;2022-12-05T08:31:15;22.90;45.90
51613;DHT22;37694;51.748;14.326;2022-12-05T08:33:42;22.90;45.80
51613;DHT22;37694;51.748;14.326;2022-12-05T08:36:11;22.80;45.70
51613;DHT22;37694;51.748;14.326;2022-12-05T08:38:37;22.80;45.80
51613;DHT22;37694;51.748;14.326;2022-12-05T08:41:05;22.80;46.50
51613;DHT22;37694;51.748;14.326;2022-12-05T08:43:32;22.80;45.70
51613;DHT22;37694;51.748;14.326;2022-12-05T08:45:58;22.80;45.70
51613;DHT22;37694;51.748;14.326;2022-12-05T08:48:24;22.80;45.70
51613;DHT22;37694;51.748;14.326;2022-12-05T08:50:50;22.70;45.60
51613;DHT22;37694;51.748;14.326;2022-12-05T08:53:16;22.70;45.60
51613;DHT22;37694;51.748;14.326;2022-12-05T08:55:41;22.70;45.60
51613;DHT22;37694;51.748;14.326;2022-12-05T08:58:08;22.70;45.60
51613;DHT22;37694;51.748;14.326;2022-12-05T09:00:33;22.70;45.70
51613;DHT22;37694;51.748;14.326;2022-12-05T09:02:59;22.70;45.60
51613;DHT22;37694;51.748;14.326;2022-12-05T09:05:25;22.60;45.60
51613;DHT22;37694;51.748;14.326;2022-12-05T09:07:51;22.60;45.70
51613;DHT22;37694;51.748;14.326;2022-12-05T09:10:17;22.60;45.60
51613;DHT22;37694;51.748;14.326;2022-12-05T09:12:43;22.60;45.60
51613;DHT22;37694;51.748;14.326;2022-12-05T09:15:10;22.60;45.70
51613;DHT22;37694;51.748;14.326;2022-12-05T09:17:37;22.60;45.60
51613;DHT22;37694;51.748;14.326;2022-12-05T09:20:04;22.60;45.60
51613;DHT22;37694;51.748;14.326;2022-12-05T09:22:31;22.50;45.60
51613;DHT22;37694;51.748;14.326;2022-12-05T09:24:57;22.50;45.60
51613;DHT22;37694;51.748;14.326;2022-12-05T09:27:22;22.50;45.60
51613;DHT22;37694;51.748;14.326;2022-12-05T09:29:48;22.50;45.60
51613;DHT22;37694;51.748;14.326;2022-12-05T09:32:14;22.50;45.60
51613;DHT22;37694;51.748;14.326;2022-12-05T09:34:40;22.50;45.60
51613;DHT22;37694;51.748;14.326;2022-12-05T09:37:06;22.40;45.50
51613;DHT22;37694;51.748;14.326;2022-12-05T09:39:32;22.40;45.50
51613;DHT22;37694;51.748;14.326;2022-12-05T09:50:02;22.30;45.50
51613;DHT22;37694;51.748;14.326;2022-12-05T09:52:37;22.30;45.60
51613;DHT22;37694;51.748;14.326;2022-12-05T09:55:10;22.30;45.50
51613;DHT22;37694;51.748;14.326;2022-12-05T09:57:41;22.30;45.60
51613;DHT22;37694;51.748;14.326;2022-12-05T10:00:09;22.30;45.60
51613;DHT22;37694;51.748;14.326;2022-12-05T10:02:46;22.30;45.60
51613;DHT22;37694;51.748;14.326;2022-12-05T10:16:08;22.20;45.60
51613;DHT22;37694;51.748;14.326;2022-12-05T10:18:45;22.20;45.70
51613;DHT22;37694;51.748;14.326;2022-12-05T10:21:29;22.10;45.70
51613;DHT22;37694;51.748;14.326;2022-12-05T10:23:59;22.20;45.60
51613;DHT22;37694;51.748;14.326;2022-12-05T10:26:29;22.10;45.60
51613;DHT22;37694;51.748;14.326;2022-12-05T10:31:43;22.10;45.60
51613;DHT22;37694;51.748;14.326;2022-12-05T10:39:42;22.10;45.70
51613;DHT22;37694;51.748;14.326;2022-12-05T10:42:12;22.10;45.80
51613;DHT22;37694;51.748;14.326;2022-12-05T10:44:39;22.10;45.70
51613;DHT22;37694;51.748;14.326;2022-12-05T10:47:05;22.00;45.60
51613;DHT22;37694;51.748;14.326;2022-12-05T10:49:32;22.10;45.70
51613;DHT22;37694;51.748;14.326;2022-12-05T10:51:59;22.00;45.60
51613;DHT22;37694;51.748;14.326;2022-12-05T10:54:29;22.00;45.70
51613;DHT22;37694;51.748;14.326;2022-12-05T10:56:55;22.00;45.70
51613;DHT22;37694;51.748;14.326;2022-12-05T10:59:23;22.00;45.70
51613;DHT22;37694;51.748;14.326;2022-12-05T11:01:54;21.90;45.60
51613;DHT22;37694;51.748;14.326;2022-12-05T11:04:31;21.90;45.60
51613;DHT22;37694;51.748;14.326;2022-12-05T11:07:05;21.90;45.60
51613;DHT22;37694;51.748;14.326;2022-12-05T11:09:46;21.90;45.80
51613;DHT22;37694;51.748;14.326;2022-12-05T11:12:18;21.80;45.80
51613;DHT22;37694;51.748;14.326;2022-12-05T11:15:21;21.80;45.70
51613;DHT22;37694;51.748;14.326;2022-12-05T11:17:50;21.80;45.60
51613;DHT22;37694;51.748;14.326;2022-12-05T11:22:49;21.80;45.60
51613;DHT22;37694;51.748;14.326;2022-12-05T11:25:28;21.80;45.90
51613;DHT22;37694;51.748;14.326;2022-12-05T11:30:39;21.80;45.60
51613;DHT22;37694;51.748;14.326;2022-12-05T11:33:18;21.80;45.80
51613;DHT22;37694;51.748;14.326;2022-12-05T11:35:46;21.80;45.90
51613;DHT22;37694;51.748;14.326;2022-12-05T11:38:13;21.70;45.80
51613;DHT22;37694;51.748;14.326;2022-12-05T11:41:10;21.70;45.70
51613;DHT22;37694;51.748;14.326;2022-12-05T11:46:54;21.70;45.60
51613;DHT22;37694;51.748;14.326;2022-12-05T11:55:18;21.70;45.70
51613;DHT22;37694;51.748;14.326;2022-12-05T12:03:17;21.60;45.80
51613;DHT22;37694;51.748;14.326;2022-12-05T12:08:25;21.60;45.90
51613;DHT22;37694;51.748;14.326;2022-12-05T12:13:34;21.60;45.80
51613;DHT22;37694;51.748;14.326;2022-12-05T12:21:42;21.60;45.70
51613;DHT22;37694;51.748;14.326;2022-12-05T12:27:21;21.50;45.70
51613;DHT22;37694;51.748;14.326;2022-12-05T12:51:46;21.40;45.80
51613;DHT22;37694;51.748;14.326;2022-12-05T12:54:35;21.50;45.70
51613;DHT22;37694;51.748;14.326;2022-12-05T13:02:51;21.40;45.80
51613;DHT22;37694;51.748;14.326;2022-12-05T13:07:48;21.40;45.70
51613;DHT22;37694;51.748;14.326;2022-12-05T13:10:29;21.40;45.60
51613;DHT22;37694;51.748;14.326;2022-12-05T13:12:59;21.40;45.60
51613;DHT22;37694;51.748;14.326;2022-12-05T13:15:38;21.40;45.80
51613;DHT22;37694;51.748;14.326;2022-12-05T13:18:10;21.40;45.60
51613;DHT22;37694;51.748;14.326;2022-12-05T13:20:38;21.40;45.70
51613;DHT22;37694;51.748;14.326;2022-12-05T13:23:05;21.40;45.70
51613;DHT22;37694;51.748;14.326;2022-12-05T13:25:35;21.40;45.70
51613;DHT22;37694;51.748;14.326;2022-12-05T13:28:06;21.40;45.70
51613;DHT22;37694;51.748;14.326;2022-12-05T13:30:47;21.40;45.60
51613;DHT22;37694;51.748;14.326;2022-12-05T13:33:25;21.30;45.60
51613;DHT22;37694;51.748;14.326;2022-12-05T13:36:06;21.30;45.60
51613;DHT22;37694;51.748;14.326;2022-12-05T13:39:02;21.30;45.60
51613;DHT22;37694;51.748;14.326;2022-12-05T13:41:51;21.30;45.70
51613;DHT22;37694;51.748;14.326;2022-12-05T13:50:12;21.30;45.70
51613;DHT22;37694;51.748;14.326;2022-12-05T13:52:52;21.30;45.70
51613;DHT22;37694;51.748;14.326;2022-12-05T13:55:28;21.20;45.60
51613;DHT22;37694;51.748;14.326;2022-12-05T13:58:00;21.20;45.70
51613;DHT22;37694;51.748;14.326;2022-12-05T14:02:57;21.20;45.80
51613;DHT22;37694;51.748;14.326;2022-12-05T14:07:54;21.20;45.60
51613;DHT22;37694;51.748;14.326;2022-12-05T14:13:37;21.20;45.60
51613;DHT22;37694;51.748;14.326;2022-12-05T14:27:12;21.10;45.70
51613;DHT22;37694;51.748;14.326;2022-12-05T14:30:03;21.10;45.70
51613;DHT22;37694;51.748;14.326;2022-12-05T14:32:39;21.10;45.60
51613;DHT22;37694;51.748;14.326;2022-12-05T14:35:12;21.10;45.70
51613;DHT22;37694;51.748;14.326;2022-12-05T14:37:54;21.10;45.70
51613;DHT22;37694;51.748;14.326;2022-12-05T14:50:50;21.10;45.60
51613;DHT22;37694;51.748;14.326;2022-12-05T14:58:33;21.10;45.60
51613;DHT22;37694;51.748;14.326;2022-12-05T15:01:21;21.00;45.70
51613;DHT22;37694;51.748;14.326;2022-12-05T15:11:53;21.00;45.70
51613;DHT22;37694;51.748;14.326;2022-12-05T15:14:22;21.00;45.60
51613;DHT22;37694;51.748;14.326;2022-12-05T15:16:51;21.00;45.70
51613;DHT22;37694;51.748;14.326;2022-12-05T15:19:23;21.00;45.70
51613;DHT22;37694;51.748;14.326;2022-12-05T15:21:56;21.00;45.60
51613;DHT22;37694;51.748;14.326;2022-12-05T15:24:23;21.00;45.70
51613;DHT22;37694;51.748;14.326;2022-12-05T15:26:56;21.00;45.70
51613;DHT22;37694;51.748;14.326;2022-12-05T15:29:25;21.00;45.60
51613;DHT22;37694;51.748;14.326;2022-12-05T15:31:55;21.00;45.70
51613;DHT22;37694;51.748;14.326;2022-12-05T15:40:18;20.90;45.60
51613;DHT22;37694;51.748;14.326;2022-12-05T15:42:48;20.90;45.70
51613;DHT22;37694;51.748;14.326;2022-12-05T15:45:21;20.90;45.70
51613;DHT22;37694;51.748;14.326;2022-12-05T15:50:29;20.90;45.70
51613;DHT22;37694;51.748;14.326;2022-12-05T15:53:08;20.90;45.70
51613;DHT22;37694;51.748;14.326;2022-12-05T15:55:50;20.90;45.70
51613;DHT22;37694;51.748;14.326;2022-12-05T16:00:53;20.90;45.70
51613;DHT22;37694;51.748;14.326;2022-12-05T16:03:29;20.90;45.70
51613;DHT22;37694;51.748;14.326;2022-12-05T16:06:03;20.90;45.70
51613;DHT22;37694;51.748;14.326;2022-12-05T16:08:31;20.90;45.70
51613;DHT22;37694;51.748;14.326;2022-12-05T16:11:08;20.90;45.70
51613;DHT22;37694;51.748;14.326;2022-12-05T16:13:34;20.80;46.00
51613;DHT22;37694;51.748;14.326;2022-12-05T16:16:00;20.80;46.10
51613;DHT22;37694;51.748;14.326;2022-12-05T16:18:29;21.20;45.80
51613;DHT22;37694;51.748;14.326;2022-12-05T16:20:55;21.80;44.90
51613;DHT22;37694;51.748;14.326;2022-12-05T16:23:30;22.30;43.70
51613;DHT22;37694;51.748;14.326;2022-12-05T16:26:19;22.90;42.80
51613;DHT22;37694;51.748;14.326;2022-12-05T16:29:05;23.30;41.50
51613;DHT22;37694;51.748;14.326;2022-12-05T16:31:34;23.80;41.30
51613;DHT22;37694;51.748;14.326;2022-12-05T16:34:02;23.80;41.50
51613;DHT22;37694;51.748;14.326;2022-12-05T16:36:29;23.70;41.70
51613;DHT22;37694;51.748;14.326;2022-12-05T16:39:04;23.50;42.20
51613;DHT22;37694;51.748;14.326;2022-12-05T16:41:37;23.40;42.70
51613;DHT22;37694;51.748;14.326;2022-12-05T16:44:04;23.20;42.90
51613;DHT22;37694;51.748;14.326;2022-12-05T16:51:52;23.00;43.90
51613;DHT22;37694;51.748;14.326;2022-12-05T16:54:18;22.90;44.00
51613;DHT22;37694;51.748;14.326;2022-12-05T16:56:44;22.90;44.20
51613;DHT22;37694;51.748;14.326;2022-12-05T16:59:20;22.90;44.60
51613;DHT22;37694;51.748;14.326;2022-12-05T17:01:47;22.90;44.40
51613;DHT22;37694;51.748;14.326;2022-12-05T17:04:13;22.80;44.30
51613;DHT22;37694;51.748;14.326;2022-12-05T17:06:39;22.80;44.30
51613;DHT22;37694;51.748;14.326;2022-12-05T17:09:04;22.80;44.40
51613;DHT22;37694;51.748;14.326;2022-12-05T17:11:32;22.80;44.50
51613;DHT22;37694;51.748;14.326;2022-12-05T17:13:59;22.90;44.60
51613;DHT22;37694;51.748;14.326;2022-12-05T17:16:26;22.90;44.60
51613;DHT22;37694;51.748;14.326;2022-12-05T17:18:52;22.90;44.70
51613;DHT22;37694;51.748;14.326;2022-12-05T17:21:23;23.00;44.70
51613;DHT22;37694;51.748;14.326;2022-12-05T17:23:50;23.00;44.50
51613;DHT22;37694;51.748;14.326;2022-12-05T17:26:18;23.10;44.60
51613;DHT22;37694;51.748;14.326;2022-12-05T17:28:44;23.20;44.60
51613;DHT22;37694;51.748;14.326;2022-12-05T17:31:21;23.20;44.60
51613;DHT22;37694;51.748;14.326;2022-12-05T17:33:47;23.30;44.60
51613;DHT22;37694;51.748;14.326;2022-12-05T17:36:14;23.30;44.60
51613;DHT22;37694;51.748;14.326;2022-12-05T17:38:40;23.40;44.70
51613;DHT22;37694;51.748;14.326;2022-12-05T17:41:06;23.40;44.60
51613;DHT22;37694;51.748;14.326;2022-12-05T17:43:32;23.40;44.60
51613;DHT22;37694;51.748;14.326;2022-12-05T17:46:01;23.40;44.60
51613;DHT22;37694;51.748;14.326;2022-12-05T17:48:27;23.40;44.80
51613;DHT22;37694;51.748;14.326;2022-12-05T17:50:53;23.40;44.70
51613;DHT22;37694;51.748;14.326;2022-12-05T17:53:22;23.40;44.60
51613;DHT22;37694;51.748;14.326;2022-12-05T17:55:48;23.40;44.70
51613;DHT22;37694;51.748;14.326;2022-12-05T17:58:15;23.40;44.60
51613;DHT22;37694;51.748;14.326;2022-12-05T18:00:42;23.40;44.60
51613;DHT22;37694;51.748;14.326;2022-12-05T18:03:12;23.30;44.60
51613;DHT22;37694;51.748;14.326;2022-12-05T18:05:39;23.30;44.60
51613;DHT22;37694;51.748;14.326;2022-12-05T18:08:04;23.30;44.90
51613;DHT22;37694;51.748;14.326;2022-12-05T18:10:30;23.30;45.10
51613;DHT22;37694;51.748;14.326;2022-12-05T18:12:56;23.30;44.80
51613;DHT22;37694;51.748;14.326;2022-12-05T18:15:21;23.30;45.60
51613;DHT22;37694;51.748;14.326;2022-12-05T18:17:47;23.30;45.20
51613;DHT22;37694;51.748;14.326;2022-12-05T18:20:14;23.30;45.00
51613;DHT22;37694;51.748;14.326;2022-12-05T18:22:40;23.30;44.90
51613;DHT22;37694;51.748;14.326;2022-12-05T18:25:07;23.30;44.80
51613;DHT22;37694;51.748;14.326;2022-12-05T18:27:34;23.20;44.70
51613;DHT22;37694;51.748;14.326;2022-12-05T18:30:00;23.20;44.90
51613;DHT22;37694;51.748;14.326;2022-12-05T18:32:26;23.20;45.10
51613;DHT22;37694;51.748;14.326;2022-12-05T18:34:51;23.20;45.20
51613;DHT22;37694;51.748;14.326;2022-12-05T18:37:17;23.20;44.80
51613;DHT22;37694;51.748;14.326;2022-12-05T18:39:43;23.20;45.50
51613;DHT22;37694;51.748;14.326;2022-12-05T18:42:09;23.10;45.30